DLH2505 URMM-URSS
Flight info
| Callsign | DLH2505 |
|---|---|
| Flight time | 0h 39m |
| Altitude | 28000 |
| Route | ABELA5M ABELA DCT ERSAR DCT GUBOR DCT BINOL DCT 4330N03932E DCT SS062 |
| Aircraft | B736/M-SDE2E3FGHIRWXY/LB1 |
Departure
| Time | 2026-04-20 02:36 |
|---|---|
| Airport | Mineralnye Vody Airport (URMM) |
Arrival
| Time | 2026-04-20 03:16 |
|---|---|
| Airport | Sochi International Airport (URSS) |
| Time | Latitude | Longitude | Altitude | Speed | Heading |
|---|---|---|---|---|---|
| 2026-04-20 02:19 | 44.21820 | 43.08903 | 1050 ft | 0 kts | 212° |
| 2026-04-20 02:27 | 44.21824 | 43.08906 | 1050 ft | 3 kts | 211° |
| 2026-04-20 02:28 | 44.21847 | 43.08924 | 1050 ft | 4 kts | 205° |
| 2026-04-20 02:28 | 44.21872 | 43.08936 | 1050 ft | 4 kts | 179° |
| 2026-04-20 02:28 | 44.21890 | 43.08928 | 1050 ft | 1 kts | 122° |
| 2026-04-20 02:28 | 44.21890 | 43.08927 | 1050 ft | 1 kts | 122° |
| 2026-04-20 02:33 | 44.21890 | 43.08928 | 1050 ft | 1 kts | 122° |
| 2026-04-20 02:33 | 44.21863 | 43.08988 | 1050 ft | 8 kts | 122° |
| 2026-04-20 02:34 | 44.21875 | 43.09075 | 1050 ft | 11 kts | 52° |
| 2026-04-20 02:34 | 44.21957 | 43.09129 | 1050 ft | 14 kts | 358° |
| 2026-04-20 02:34 | 44.22046 | 43.09075 | 1051 ft | 14 kts | 333° |
| 2026-04-20 02:34 | 44.22128 | 43.09013 | 1052 ft | 13 kts | 331° |
| 2026-04-20 02:35 | 44.22218 | 43.08946 | 1052 ft | 16 kts | 332° |
| 2026-04-20 02:35 | 44.22314 | 43.08875 | 1051 ft | 15 kts | 332° |
| 2026-04-20 02:35 | 44.22409 | 43.08835 | 1051 ft | 14 kts | 11° |
| 2026-04-20 02:35 | 44.22443 | 43.08826 | 1052 ft | 0 kts | 303° |
| 2026-04-20 02:36 | 44.22571 | 43.08539 | 1053 ft | 75 kts | 301° |
| 2026-04-20 02:36 | 44.22979 | 43.07642 | 1051 ft | 142 kts | 303° |
| 2026-04-20 02:36 | 44.23581 | 43.06373 | 1526 ft | 155 kts | 301° |
| 2026-04-20 02:36 | 44.24144 | 43.05148 | 2487 ft | 144 kts | 300° |
| 2026-04-20 02:37 | 44.24655 | 43.03992 | 3276 ft | 145 kts | 300° |
| 2026-04-20 02:37 | 44.25249 | 43.02645 | 3621 ft | 177 kts | 300° |
| 2026-04-20 02:37 | 44.25951 | 43.01064 | 3887 ft | 206 kts | 301° |
| 2026-04-20 02:37 | 44.26766 | 42.99254 | 4177 ft | 233 kts | 301° |
| 2026-04-20 02:38 | 44.27650 | 42.97292 | 4921 ft | 243 kts | 301° |
| 2026-04-20 02:38 | 44.28552 | 42.95298 | 5940 ft | 243 kts | 301° |
| 2026-04-20 02:38 | 44.29459 | 42.93294 | 6872 ft | 248 kts | 301° |
| 2026-04-20 02:38 | 44.30389 | 42.91235 | 7698 ft | 253 kts | 301° |
| 2026-04-20 02:39 | 44.31312 | 42.89195 | 8509 ft | 259 kts | 301° |
| 2026-04-20 02:39 | 44.32028 | 42.86793 | 9288 ft | 265 kts | 276° |
| 2026-04-20 02:39 | 44.31899 | 42.84224 | 10078 ft | 270 kts | 255° |
| 2026-04-20 02:39 | 44.31086 | 42.81781 | 10529 ft | 291 kts | 236° |
| 2026-04-20 02:40 | 44.29830 | 42.79421 | 10778 ft | 316 kts | 232° |
| 2026-04-20 02:40 | 44.28436 | 42.76961 | 11393 ft | 326 kts | 232° |
| 2026-04-20 02:40 | 44.27041 | 42.74464 | 12282 ft | 326 kts | 232° |
| 2026-04-20 02:40 | 44.25653 | 42.71961 | 13166 ft | 327 kts | 232° |
| 2026-04-20 02:41 | 44.24266 | 42.69435 | 13975 ft | 330 kts | 232° |
| 2026-04-20 02:41 | 44.22870 | 42.66887 | 14771 ft | 331 kts | 232° |
| 2026-04-20 02:41 | 44.21468 | 42.64327 | 15541 ft | 333 kts | 232° |
| 2026-04-20 02:41 | 44.20071 | 42.61731 | 16274 ft | 337 kts | 236° |
| 2026-04-20 02:42 | 44.19109 | 42.58819 | 16963 ft | 341 kts | 252° |
| 2026-04-20 02:42 | 44.18724 | 42.55467 | 17744 ft | 345 kts | 261° |
| 2026-04-20 02:42 | 44.18513 | 42.52123 | 18466 ft | 348 kts | 262° |
| 2026-04-20 02:42 | 44.18332 | 42.48757 | 19157 ft | 349 kts | 262° |
| 2026-04-20 02:43 | 44.18151 | 42.45368 | 19827 ft | 352 kts | 262° |
| 2026-04-20 02:43 | 44.17962 | 42.41959 | 20477 ft | 354 kts | 262° |
| 2026-04-20 02:43 | 44.17764 | 42.38526 | 21111 ft | 356 kts | 262° |
| 2026-04-20 02:43 | 44.17558 | 42.35070 | 21711 ft | 360 kts | 262° |
| 2026-04-20 02:44 | 44.17345 | 42.31591 | 22318 ft | 362 kts | 262° |
| 2026-04-20 02:44 | 44.17127 | 42.28082 | 22875 ft | 365 kts | 262° |
| 2026-04-20 02:44 | 44.16905 | 42.24543 | 23425 ft | 368 kts | 262° |
| 2026-04-20 02:44 | 44.16680 | 42.20980 | 23983 ft | 371 kts | 261° |
| 2026-04-20 02:45 | 44.16451 | 42.17382 | 24465 ft | 375 kts | 261° |
| 2026-04-20 02:45 | 44.16218 | 42.13748 | 24992 ft | 377 kts | 261° |
| 2026-04-20 02:45 | 44.15985 | 42.10124 | 25716 ft | 374 kts | 261° |
| 2026-04-20 02:45 | 44.15759 | 42.06590 | 26499 ft | 369 kts | 261° |
| 2026-04-20 02:46 | 44.15530 | 42.03052 | 27204 ft | 366 kts | 260° |
| 2026-04-20 02:46 | 44.15300 | 41.99529 | 27770 ft | 366 kts | 260° |
| 2026-04-20 02:46 | 44.15064 | 41.95953 | 27855 ft | 362 kts | 260° |
| 2026-04-20 02:46 | 44.14836 | 41.92476 | 27895 ft | 361 kts | 260° |
| 2026-04-20 02:47 | 44.14602 | 41.88974 | 27917 ft | 366 kts | 260° |
| 2026-04-20 02:47 | 44.14368 | 41.85483 | 27897 ft | 367 kts | 260° |
| 2026-04-20 02:47 | 44.14132 | 41.81953 | 27904 ft | 366 kts | 260° |
| 2026-04-20 02:47 | 44.13896 | 41.78433 | 27901 ft | 365 kts | 260° |
| 2026-04-20 02:48 | 44.13659 | 41.74917 | 27918 ft | 364 kts | 260° |
| 2026-04-20 02:48 | 44.13499 | 41.72548 | 27898 ft | 364 kts | 260° |
| 2026-04-20 02:48 | 44.13261 | 41.69044 | 27907 ft | 363 kts | 260° |
| 2026-04-20 02:48 | 44.12944 | 41.64415 | 27913 ft | 363 kts | 259° |
| 2026-04-20 02:49 | 44.12704 | 41.60919 | 27919 ft | 363 kts | 259° |
| 2026-04-20 02:49 | 44.12463 | 41.57421 | 27905 ft | 363 kts | 259° |
| 2026-04-20 02:49 | 44.12221 | 41.53921 | 27912 ft | 363 kts | 259° |
| 2026-04-20 02:49 | 44.12056 | 41.51557 | 27914 ft | 363 kts | 259° |
| 2026-04-20 02:50 | 44.11662 | 41.48106 | 27916 ft | 359 kts | 252° |
| 2026-04-20 02:50 | 44.10917 | 41.44812 | 27928 ft | 356 kts | 245° |
| 2026-04-20 02:50 | 44.09955 | 41.41647 | 27934 ft | 355 kts | 244° |
| 2026-04-20 02:50 | 44.08977 | 41.38487 | 27931 ft | 355 kts | 244° |
| 2026-04-20 02:51 | 44.07998 | 41.35332 | 27939 ft | 355 kts | 244° |
| 2026-04-20 02:51 | 44.07021 | 41.32173 | 27934 ft | 355 kts | 244° |
| 2026-04-20 02:51 | 44.06047 | 41.29017 | 27933 ft | 355 kts | 244° |
| 2026-04-20 02:51 | 44.05076 | 41.25861 | 27934 ft | 355 kts | 244° |
| 2026-04-20 02:52 | 44.04108 | 41.22710 | 27943 ft | 354 kts | 244° |
| 2026-04-20 02:52 | 44.03141 | 41.19562 | 27946 ft | 354 kts | 244° |
| 2026-04-20 02:52 | 44.02187 | 41.16457 | 27939 ft | 354 kts | 244° |
| 2026-04-20 02:52 | 44.01238 | 41.13366 | 27931 ft | 342 kts | 244° |
| 2026-04-20 02:53 | 44.00312 | 41.10351 | 27655 ft | 337 kts | 244° |
| 2026-04-20 02:53 | 43.99399 | 41.07387 | 27281 ft | 333 kts | 244° |
| 2026-04-20 02:53 | 43.98492 | 41.04449 | 26893 ft | 329 kts | 244° |
| 2026-04-20 02:53 | 43.97591 | 41.01535 | 26452 ft | 327 kts | 244° |
| 2026-04-20 02:54 | 43.96697 | 40.98644 | 26014 ft | 325 kts | 244° |
| 2026-04-20 02:54 | 43.95808 | 40.95771 | 25586 ft | 323 kts | 245° |
| 2026-04-20 02:54 | 43.94925 | 40.92919 | 25146 ft | 320 kts | 245° |
| 2026-04-20 02:54 | 43.94047 | 40.90093 | 24729 ft | 318 kts | 245° |
| 2026-04-20 02:55 | 43.93175 | 40.87287 | 24306 ft | 316 kts | 245° |
| 2026-04-20 02:55 | 43.92307 | 40.84494 | 23871 ft | 315 kts | 245° |
| 2026-04-20 02:55 | 43.91444 | 40.81722 | 23465 ft | 312 kts | 245° |
| 2026-04-20 02:55 | 43.90586 | 40.78965 | 23054 ft | 311 kts | 245° |
| 2026-04-20 02:56 | 43.89729 | 40.76221 | 22649 ft | 309 kts | 245° |
| 2026-04-20 02:56 | 43.88876 | 40.73490 | 22234 ft | 308 kts | 245° |
| 2026-04-20 02:56 | 43.88027 | 40.70774 | 21812 ft | 307 kts | 245° |
| 2026-04-20 02:56 | 43.87159 | 40.68032 | 21145 ft | 313 kts | 245° |
| 2026-04-20 02:57 | 43.86282 | 40.65277 | 20671 ft | 312 kts | 245° |
| 2026-04-20 02:57 | 43.85408 | 40.62536 | 20255 ft | 309 kts | 245° |
| 2026-04-20 02:57 | 43.84542 | 40.59819 | 19863 ft | 307 kts | 245° |
| 2026-04-20 02:57 | 43.83681 | 40.57124 | 19473 ft | 305 kts | 245° |
| 2026-04-20 02:58 | 43.82825 | 40.54443 | 19055 ft | 302 kts | 245° |
| 2026-04-20 02:58 | 43.81983 | 40.51808 | 18716 ft | 296 kts | 244° |
| 2026-04-20 02:58 | 43.81152 | 40.49212 | 18353 ft | 293 kts | 245° |
| 2026-04-20 02:58 | 43.80326 | 40.46631 | 17946 ft | 293 kts | 244° |
| 2026-04-20 02:59 | 43.79501 | 40.44060 | 17566 ft | 291 kts | 245° |
| 2026-04-20 02:59 | 43.78681 | 40.41506 | 17162 ft | 289 kts | 245° |
| 2026-04-20 02:59 | 43.77878 | 40.38991 | 16850 ft | 285 kts | 245° |
| 2026-04-20 02:59 | 43.77072 | 40.36496 | 16428 ft | 282 kts | 245° |
| 2026-04-20 03:00 | 43.76279 | 40.34037 | 16110 ft | 281 kts | 244° |
| 2026-04-20 03:00 | 43.75484 | 40.31574 | 15721 ft | 281 kts | 245° |
| 2026-04-20 03:00 | 43.74692 | 40.29114 | 15398 ft | 279 kts | 245° |
| 2026-04-20 03:00 | 43.73904 | 40.26663 | 15027 ft | 279 kts | 244° |
| 2026-04-20 03:01 | 43.73111 | 40.24207 | 14672 ft | 280 kts | 244° |
| 2026-04-20 03:01 | 43.72317 | 40.21754 | 14280 ft | 278 kts | 245° |
| 2026-04-20 03:01 | 43.71541 | 40.19348 | 13986 ft | 270 kts | 244° |
| 2026-04-20 03:01 | 43.70765 | 40.16957 | 13593 ft | 276 kts | 244° |
| 2026-04-20 03:02 | 43.69974 | 40.14520 | 13236 ft | 280 kts | 244° |
| 2026-04-20 03:02 | 43.69167 | 40.12040 | 12869 ft | 286 kts | 244° |
| 2026-04-20 03:02 | 43.68346 | 40.09512 | 12422 ft | 291 kts | 244° |
| 2026-04-20 03:02 | 43.67518 | 40.06954 | 11980 ft | 291 kts | 244° |
| 2026-04-20 03:03 | 43.66695 | 40.04410 | 11594 ft | 290 kts | 244° |
| 2026-04-20 03:03 | 43.65877 | 40.01883 | 11227 ft | 287 kts | 245° |
| 2026-04-20 03:03 | 43.65063 | 39.99369 | 10850 ft | 287 kts | 245° |
| 2026-04-20 03:03 | 43.64248 | 39.96857 | 10472 ft | 286 kts | 245° |
| 2026-04-20 03:04 | 43.63442 | 39.94374 | 10275 ft | 279 kts | 246° |
| 2026-04-20 03:04 | 43.62661 | 39.91968 | 10128 ft | 271 kts | 245° |
| 2026-04-20 03:04 | 43.61901 | 39.89630 | 9986 ft | 263 kts | 246° |
| 2026-04-20 03:04 | 43.61152 | 39.87334 | 9689 ft | 262 kts | 246° |
| 2026-04-20 03:05 | 43.60406 | 39.85044 | 9388 ft | 261 kts | 246° |
| 2026-04-20 03:05 | 43.59663 | 39.82764 | 9079 ft | 260 kts | 246° |
| 2026-04-20 03:05 | 43.58920 | 39.80489 | 8770 ft | 260 kts | 246° |
| 2026-04-20 03:05 | 43.58178 | 39.78217 | 8450 ft | 260 kts | 246° |
| 2026-04-20 03:06 | 43.57435 | 39.75945 | 8136 ft | 260 kts | 246° |
| 2026-04-20 03:06 | 43.56693 | 39.73676 | 7818 ft | 260 kts | 246° |
| 2026-04-20 03:06 | 43.55951 | 39.71408 | 7504 ft | 259 kts | 246° |
| 2026-04-20 03:06 | 43.55209 | 39.69144 | 7195 ft | 259 kts | 246° |
| 2026-04-20 03:07 | 43.54470 | 39.66888 | 6886 ft | 258 kts | 246° |
| 2026-04-20 03:07 | 43.53732 | 39.64639 | 6580 ft | 257 kts | 246° |
| 2026-04-20 03:07 | 43.52993 | 39.62393 | 6275 ft | 257 kts | 246° |
| 2026-04-20 03:07 | 43.52257 | 39.60156 | 5971 ft | 256 kts | 246° |
| 2026-04-20 03:08 | 43.51485 | 39.57959 | 5664 ft | 255 kts | 238° |
| 2026-04-20 03:08 | 43.50174 | 39.56351 | 5358 ft | 256 kts | 206° |
| 2026-04-20 03:08 | 43.48447 | 39.55880 | 5109 ft | 255 kts | 176° |
| 2026-04-20 03:08 | 43.46768 | 39.56577 | 4849 ft | 254 kts | 151° |
| 2026-04-20 03:09 | 43.45307 | 39.57925 | 4579 ft | 253 kts | 144° |
| 2026-04-20 03:09 | 43.43908 | 39.59388 | 4289 ft | 252 kts | 143° |
| 2026-04-20 03:09 | 43.42516 | 39.60850 | 4050 ft | 250 kts | 143° |
| 2026-04-20 03:09 | 43.41151 | 39.62260 | 3934 ft | 242 kts | 143° |
| 2026-04-20 03:10 | 43.39818 | 39.63620 | 3814 ft | 235 kts | 144° |
| 2026-04-20 03:10 | 43.38524 | 39.64932 | 3710 ft | 227 kts | 144° |
| 2026-04-20 03:10 | 43.37284 | 39.66187 | 3636 ft | 215 kts | 144° |
| 2026-04-20 03:10 | 43.36326 | 39.67642 | 3486 ft | 202 kts | 112° |
| 2026-04-20 03:11 | 43.36158 | 39.69480 | 3288 ft | 194 kts | 82° |
| 2026-04-20 03:11 | 43.36630 | 39.71171 | 3189 ft | 189 kts | 59° |
| 2026-04-20 03:11 | 43.37240 | 39.72805 | 2949 ft | 194 kts | 64° |
| 2026-04-20 03:11 | 43.37809 | 39.74489 | 2722 ft | 194 kts | 65° |
| 2026-04-20 03:12 | 43.38367 | 39.76146 | 2482 ft | 188 kts | 65° |
| 2026-04-20 03:12 | 43.38914 | 39.77763 | 2235 ft | 184 kts | 65° |
| 2026-04-20 03:12 | 43.39442 | 39.79321 | 2003 ft | 176 kts | 65° |
| 2026-04-20 03:12 | 43.39948 | 39.80810 | 1787 ft | 168 kts | 65° |
| 2026-04-20 03:13 | 43.40433 | 39.82242 | 1607 ft | 163 kts | 66° |
| 2026-04-20 03:13 | 43.40907 | 39.83638 | 1403 ft | 160 kts | 66° |
| 2026-04-20 03:13 | 43.41362 | 39.84979 | 1188 ft | 151 kts | 64° |
| 2026-04-20 03:13 | 43.41786 | 39.86226 | 1020 ft | 138 kts | 64° |
| 2026-04-20 03:14 | 43.41838 | 39.86379 | 1003 ft | 138 kts | 64° |
| 2026-04-20 03:14 | 43.42190 | 39.87415 | 839 ft | 137 kts | 64° |
| 2026-04-20 03:14 | 43.42585 | 39.88606 | 629 ft | 138 kts | 65° |
| 2026-04-20 03:15 | 43.42972 | 39.89774 | 481 ft | 134 kts | 64° |
| 2026-04-20 03:15 | 43.43370 | 39.90937 | 338 ft | 133 kts | 64° |
| 2026-04-20 03:15 | 43.43771 | 39.92075 | 154 ft | 128 kts | 64° |
| 2026-04-20 03:15 | 43.44148 | 39.93180 | 56 ft | 126 kts | 65° |
| 2026-04-20 03:16 | 43.44475 | 39.94126 | 70 ft | 74 kts | 65° |
| 2026-04-20 03:16 | 43.44633 | 39.94585 | 66 ft | 45 kts | 64° |
| 2026-04-20 03:16 | 43.44721 | 39.94787 | 74 ft | 17 kts | 15° |
| 2026-04-20 03:16 | 43.44798 | 39.94741 | 74 ft | 8 kts | 308° |
| 2026-04-20 03:17 | 43.44786 | 39.94673 | 69 ft | 8 kts | 241° |
| 2026-04-20 03:17 | 43.44763 | 39.94607 | 67 ft | 8 kts | 245° |
| 2026-04-20 03:17 | 43.44772 | 39.94548 | 71 ft | 7 kts | 339° |
| 2026-04-20 03:17 | 43.44819 | 39.94519 | 73 ft | 7 kts | 334° |
| 2026-04-20 03:18 | 43.44851 | 39.94498 | 73 ft | 0 kts | 335° |